Cedar Grove, Tennessee
Current Conditions -  °F | °C
As of 11:53 AM on Thursday 18 Dec 2014 (Local Time) from KMKL Reporting Station
Haze Haze  
Wind Chill: 41°   Ceiling: 5000
Heat Index: 41°   Visibility: 6mi
Dew Point: 35°   Wind: 0mph
Humidity: 79%   Direction: NA
Pressure: 30.23"   Gusts: NA
Location:  35.82°N, 88.6°W
Report Text: KMKL 181753Z 00000KT 6SM HZ FEW012 OVC050 05/02 A3023 RMK AO2 SLP239 60000 T00500017 10056 20022 56017
Loading
Personal Weather Stations






























Interactive Weather Map New forecast layout! Learn more

10-Day Weather Forecast

Advertisements
Track Severe Weather on mobile